Thorco Royal — VRIP2 — position and weather

sailwx.info

Track history (hours):
 
Tides and Currents Weather Stations Pressure Air Temp Water Temp Dewpoint Dewpoint Depression Visibility Wind Speed Wind Dir Waves Ship Positions

Thorco Royal

Last reported at 2018-May-30 08:03 UTC. Time now 2018-Jun-22 16:40 UTC.
Position N 27°41' W 015°14'.
Warning: this ship's position is 23 days out of date.

Length 162 m; draft 8.8 m.

Type: Ship. MMSI: 477902400.

Date/timePositionNaut miles runAvg speedWind from/ knotsBaromVisibWave heightAir tempDewpointWater temp
2018-May-30 08:03N 27°41' W 015°14'114.2
2018-May-30 08:00N 27°41' W 015°14'713.8
2018-May-30 07:30N 27°48' W 015°11'713.5
2018-May-30 07:00N 27°54' W 015°07'816.3
2018-May-30 06:30N 28°01' W 015°04'816.6
2018-May-30 06:00N 28°09' W 015°01'714.9
2018-May-30 05:30N 28°16' W 014°58'713.5
2018-May-30 05:00N 28°22' W 014°54'713.4
2018-May-30 04:29N 28°27' W 014°49'613.5
2018-May-30 04:00N 28°32' W 014°44'713.4
2018-May-30 03:29N 28°38' W 014°39'63612.9
2018-May-28 02:14N 35°58' W 005°36'311.9
2018-May-28 02:00N 35°58' W 005°33'611.2
2018-May-28 01:30N 36°00' W 005°26'510.5
2018-May-28 01:00N 36°05' W 005°23'3 0.3
2018-May-27 16:06N 36°08' W 005°22'0 0.5
2018-May-27 15:58N 36°08' W 005°22'2 4.8
2018-May-27 15:30N 36°06' W 005°22'3 5.4
2018-May-27 15:00N 36°06' W 005°19'3 6.7
2018-May-27 14:30N 36°06' W 005°14'611.0
2018-May-27 14:00N 36°07' W 005°08'25812.0
2018-May-26 16:37N 37°29' W 000°03'213.1
2018-May-26 16:26N 37°30' E 000°00'48313.2
2018-May-25 03:49N 42°36' E 008°09'2613.7
2018-May-25 01:54N 42°50' E 008°40'613.7
2018-May-25 01:29N 42°53' E 008°46'813.7
2018-May-25 00:54N 42°57' E 008°56'614.0
2018-May-25 00:30N 42°60' E 009°02'714.1
2018-May-25 00:01N 43°04' E 009°10'714.1
2018-May-24 23:30N 43°07' E 009°19'714.1
2018-May-24 23:00N 43°09' E 009°28'713.9
2018-May-24 22:30N 43°12' E 009°37'814.0
2018-May-24 21:57N 43°15' E 009°47'614.0
2018-May-24 21:31N 43°18' E 009°54'713.6
2018-May-24 21:01N 43°22' E 010°01'612.3
2018-May-24 20:30N 43°28' E 010°05'5 9.3
2018-May-24 20:00N 43°30' E 010°10'4 8.1
2018-May-24 19:30N 43°32' E 010°15'3 6.5
2018-May-24 19:00N 43°34' E 010°18'0 0.3
2018-May-24 18:30N 43°34' E 010°18'0 0.0
2018-May-24 17:57N 43°34' E 010°18'0 0.0
2018-May-24 17:30N 43°34' E 010°18'0 0.0
2018-May-24 16:57N 43°34' E 010°18'0 0.0
2018-May-24 16:30N 43°34' E 010°18'0 0.0
2018-May-24 16:00N 43°34' E 010°18'0 0.0
2018-May-24 15:21N 43°34' E 010°18'0 0.0
2018-May-24 15:00N 43°34' E 010°18'0 0.0
2018-May-24 14:30N 43°34' E 010°18'0 0.0
2018-May-24 14:00N 43°34' E 010°18'0 0.0
2018-May-24 13:21N 43°34' E 010°18'0 0.0
2018-May-24 09:00N 43°34' E 010°18'0 0.0
2018-May-24 08:30N 43°34' E 010°18'0 0.0
2018-May-24 07:36N 43°34' E 010°18'0 0.0
2018-May-24 07:09N 43°34' E 010°18'0 0.0
2018-May-24 07:00N 43°34' E 010°18'0 0.0
2018-May-24 06:30N 43°34' E 010°18'0 0.0
2018-May-24 05:51N 43°34' E 010°18'0 0.0
2018-May-24 05:27N 43°34' E 010°18'0 0.0
2018-May-24 05:00N 43°34' E 010°18'0 0.0
2018-May-24 04:24N 43°34' E 010°18'0 0.0
2018-May-24 04:00N 43°34' E 010°18'0 0.0
2018-May-24 03:30N 43°34' E 010°18'0 0.0
2018-May-24 03:00N 43°34' E 010°18'0 0.0
2018-May-24 02:30N 43°34' E 010°18'0 0.0
2018-May-24 02:00N 43°34' E 010°18'0 0.0
2018-May-24 01:30N 43°34' E 010°18'0 0.0
2018-May-24 01:00N 43°34' E 010°18'0 0.0
2018-May-24 00:30N 43°34' E 010°18'0 0.0
2018-May-23 23:57N 43°34' E 010°18'0 0.0
2018-May-23 23:30N 43°34' E 010°18'0 0.0
2018-May-23 23:00N 43°34' E 010°18'0 0.0
2018-May-23 22:30N 43°34' E 010°18'0 0.0
2018-May-23 22:00N 43°34' E 010°18'0 0.0
2018-May-23 21:30N 43°34' E 010°18'0 0.0
2018-May-23 20:57N 43°34' E 010°18'0 0.0
2018-May-23 20:30N 43°34' E 010°18'0 0.0
2018-May-23 20:00N 43°34' E 010°18'0 0.0
2018-May-23 19:30N 43°34' E 010°18'0 0.0
2018-May-23 19:00N 43°34' E 010°18'0 0.0
2018-May-23 18:30N 43°34' E 010°18'0 0.0
2018-May-23 18:00N 43°34' E 010°18'0 0.0
2018-May-23 17:30N 43°34' E 010°18'0 0.0
2018-May-23 17:00N 43°34' E 010°18'0 0.0
2018-May-23 16:30N 43°34' E 010°18'0 0.0
2018-May-23 16:00N 43°34' E 010°18'0 0.0
2018-May-23 15:30N 43°34' E 010°18'0 0.0
2018-May-23 15:00N 43°34' E 010°18'0 0.0
2018-May-23 14:18N 43°34' E 010°18'0 0.0
2018-May-23 14:00N 43°34' E 010°18'0 0.0
2018-May-23 13:30N 43°34' E 010°18'0 0.0
2018-May-23 13:00N 43°34' E 010°18'0 0.0
2018-May-23 12:30N 43°34' E 010°18'0 0.0
2018-May-23 11:57N 43°34' E 010°18'0 0.0
2018-May-23 11:27N 43°34' E 010°18'0 0.0
2018-May-23 11:00N 43°34' E 010°18'0 0.0
2018-May-23 10:30N 43°34' E 010°18'0 0.0
2018-May-23 10:00N 43°34' E 010°18'0 0.0
2018-May-23 09:27N 43°34' E 010°18'0 0.0
2018-May-23 09:00N 43°34' E 010°18'0 0.0
2018-May-23 08:30N 43°34' E 010°18'0 0.0
2018-May-23 08:00N 43°34' E 010°18'0 0.0
2018-May-23 07:30N 43°34' E 010°18'0 0.0
2018-May-23 06:57N 43°34' E 010°18'0 0.0
2018-May-23 06:30N 43°34' E 010°18'0 0.0
2018-May-23 06:00N 43°34' E 010°18'0 0.0
2018-May-23 05:30N 43°34' E 010°18'0 0.0
2018-May-23 05:00N 43°34' E 010°18'0 0.0
2018-May-23 04:30N 43°34' E 010°18'0 0.0
2018-May-23 04:00N 43°34' E 010°18'0 0.0
2018-May-23 03:27N 43°34' E 010°18'0 0.0
2018-May-23 03:00N 43°34' E 010°18'0 0.0
2018-May-23 02:30N 43°34' E 010°18'0 0.0
2018-May-23 02:00N 43°34' E 010°18'0 0.0
2018-May-23 01:30N 43°34' E 010°18'0 0.0
2018-May-23 01:00N 43°34' E 010°18'0 0.0
2018-May-23 00:30N 43°34' E 010°18'0 0.0
2018-May-23 00:00N 43°34' E 010°18'0 0.0
2018-May-22 23:30N 43°34' E 010°18'0 0.0
2018-May-22 23:00N 43°34' E 010°18'0 0.0
2018-May-22 22:30N 43°34' E 010°18'0 0.0
2018-May-22 22:00N 43°34' E 010°18'0 0.0
2018-May-22 21:30N 43°34' E 010°18'0 0.0
2018-May-22 21:00N 43°34' E 010°18'0 0.0
2018-May-22 20:27N 43°34' E 010°18'0 0.0
2018-May-22 20:00N 43°34' E 010°18'0 0.0
2018-May-22 19:27N 43°34' E 010°18'0 0.0
2018-May-22 18:57N 43°34' E 010°18'0 0.0
2018-May-22 18:30N 43°34' E 010°18'0 0.0
2018-May-22 18:00N 43°34' E 010°18'0 0.0
2018-May-22 17:30N 43°34' E 010°18'0 0.0
2018-May-22 17:00N 43°34' E 010°18'0 0.0
2018-May-22 16:30N 43°34' E 010°18'0 0.0
2018-May-22 15:57N 43°34' E 010°18'0 0.0
2018-May-22 15:30N 43°34' E 010°18'0 0.0
2018-May-22 15:00N 43°34' E 010°18'0 0.0
2018-May-22 14:28N 43°34' E 010°18'0 0.0
2018-May-22 13:58N 43°34' E 010°18'0 0.0
2018-May-22 13:28N 43°34' E 010°18'0 0.0
2018-May-22 12:58N 43°34' E 010°18'0 0.0
2018-May-22 12:28N 43°34' E 010°18'0 0.0
2018-May-22 11:58N 43°34' E 010°18'0 0.0
2018-May-22 11:28N 43°34' E 010°18'0 0.0
2018-May-22 10:55N 43°34' E 010°18'0 0.0
2018-May-22 10:28N 43°34' E 010°18'0 0.0
2018-May-22 09:46N 43°34' E 010°18'0 0.0
2018-May-22 09:28N 43°34' E 010°18'0 0.0
2018-May-22 08:58N 43°34' E 010°18'0 0.0
2018-May-22 08:27N 43°34' E 010°18'0 0.0
2018-May-22 07:54N 43°34' E 010°18'0 0.0
2018-May-22 07:30N 43°34' E 010°18'0 0.0
2018-May-22 07:00N 43°34' E 010°18'0 0.0
2018-May-22 06:30N 43°34' E 010°18'0 0.0
2018-May-22 06:00N 43°34' E 010°18'0 0.0
2018-May-22 05:30N 43°34' E 010°18'0 0.0
2018-May-22 04:57N 43°34' E 010°18'0 0.0
2018-May-22 04:24N 43°34' E 010°18'0 0.0
2018-May-22 04:00N 43°34' E 010°18'0 0.0
2018-May-22 03:30N 43°34' E 010°18'0 0.0
2018-May-22 03:00N 43°34' E 010°18'0 0.0
2018-May-22 02:27N 43°34' E 010°18'0 0.0
2018-May-22 01:57N 43°34' E 010°18'0 0.0
2018-May-22 01:27N 43°34' E 010°18'0 0.0
2018-May-22 00:57N 43°34' E 010°18'0 0.0
2018-May-22 00:30N 43°34' E 010°18'0 0.0
2018-May-22 00:00N 43°34' E 010°18'0 0.0
2018-May-21 23:30N 43°34' E 010°18'0 0.0
2018-May-21 22:57N 43°34' E 010°18'0 0.0
2018-May-21 22:30N 43°34' E 010°18'0 0.1
2018-May-21 22:01N 43°34' E 010°18'2 4.7
2018-May-21 21:31N 43°32' E 010°17'1 2.8
2018-May-21 21:01N 43°31' E 010°16'2 3.5
2018-May-21 20:29N 43°29' E 010°17'0 0.0
2018-May-21 19:59N 43°29' E 010°17'0 0.1
2018-May-21 19:29N 43°29' E 010°17'0 0.1
2018-May-21 18:59N 43°29' E 010°17'0 0.0
2018-May-21 18:29N 43°29' E 010°17'0 0.1
2018-May-21 17:59N 43°29' E 010°17'0 0.0
2018-May-21 17:29N 43°29' E 010°17'0 0.0
2018-May-21 16:59N 43°29' E 010°17'0 0.0
2018-May-21 16:29N 43°29' E 010°17'0 0.1
2018-May-21 15:56N 43°29' E 010°17'0 0.2
2018-May-21 15:29N 43°29' E 010°17'0 0.1
2018-May-21 14:59N 43°29' E 010°17'0 0.0
2018-May-21 14:23N 43°29' E 010°17'0 0.1
2018-May-21 13:59N 43°29' E 010°17'0 0.0
2018-May-21 13:29N 43°29' E 010°17'0 0.2
2018-May-21 12:56N 43°29' E 010°17'0 0.1
2018-May-21 12:29N 43°29' E 010°17'0 0.0
2018-May-21 11:59N 43°29' E 010°17'0 0.1
2018-May-21 11:29N 43°29' E 010°17'0 0.0
2018-May-21 10:59N 43°29' E 010°17'0 0.1
2018-May-21 10:29N 43°29' E 010°17'0 0.3
2018-May-21 09:59N 43°29' E 010°17'0 0.0
2018-May-21 09:29N 43°29' E 010°17'0 0.0
2018-May-21 08:59N 43°29' E 010°17'0 0.1
2018-May-21 08:29N 43°29' E 010°17'0 0.0
2018-May-21 07:56N 43°29' E 010°17'0 0.0
2018-May-21 07:29N 43°29' E 010°17'0 0.0
2018-May-21 06:59N 43°29' E 010°17'0 0.0
2018-May-21 06:26N 43°29' E 010°17'0 0.0
2018-May-21 05:59N 43°29' E 010°17'0 0.0
2018-May-21 05:29N 43°29' E 010°17'0 0.0
2018-May-21 04:59N 43°29' E 010°17'0 0.0
2018-May-21 04:26N 43°29' E 010°17'0 0.0
2018-May-21 03:59N 43°29' E 010°17'0 0.0
2018-May-21 03:29N 43°29' E 010°17'0 0.0
2018-May-21 02:59N 43°29' E 010°17'0 0.0
2018-May-21 02:26N 43°29' E 010°17'0 0.0
2018-May-21 01:53N 43°29' E 010°17'0 0.0
2018-May-21 01:29N 43°29' E 010°17'0 0.0
2018-May-21 00:59N 43°29' E 010°17'0 0.0
2018-May-21 00:29N 43°29' E 010°17'0 0.0
2018-May-20 23:59N 43°29' E 010°17'0 0.0
2018-May-20 23:26N 43°29' E 010°17'0 0.0
2018-May-20 22:56N 43°29' E 010°17'0 0.1
2018-May-20 22:29N 43°29' E 010°17'0 0.0
2018-May-20 21:56N 43°29' E 010°17'0 0.1
2018-May-20 21:29N 43°29' E 010°17'0 0.0
2018-May-20 20:59N 43°29' E 010°17'0 0.0
2018-May-20 20:29N 43°29' E 010°17'0 0.0
2018-May-20 19:59N 43°29' E 010°17'0 0.0
2018-May-20 19:20N 43°29' E 010°17'0 0.2
2018-May-20 18:59N 43°29' E 010°17'0 0.0
2018-May-20 18:29N 43°29' E 010°17'0 0.1
2018-May-20 17:59N 43°29' E 010°17'0 0.1
2018-May-20 17:26N 43°29' E 010°17'0 0.1
2018-May-20 16:59N 43°29' E 010°17'0 0.0
2018-May-20 16:29N 43°29' E 010°17'0 0.0
2018-May-20 15:59N 43°29' E 010°17'0 0.0
2018-May-20 15:29N 43°29' E 010°17'0 0.1
2018-May-20 14:59N 43°29' E 010°17'0 0.0
2018-May-20 14:23N 43°29' E 010°17'0 0.0
2018-May-20 13:53N 43°29' E 010°17'0 0.0
2018-May-20 13:26N 43°29' E 010°17'0 0.0
2018-May-20 12:59N 43°29' E 010°17'0 0.0
2018-May-20 12:29N 43°29' E 010°17'0 0.1
2018-May-20 11:59N 43°29' E 010°17'0 0.3
2018-May-20 11:26N 43°29' E 010°17'0 0.0
2018-May-20 10:53N 43°29' E 010°17'0 0.0
2018-May-20 10:29N 43°29' E 010°17'0 0.0
2018-May-20 09:59N 43°29' E 010°17'0 0.0
2018-May-20 09:29N 43°29' E 010°17'0 0.0
2018-May-20 08:59N 43°29' E 010°17'0 0.0
2018-May-20 08:26N 43°29' E 010°17'  
Track history (hours):
 
Tides and Currents Weather Stations Pressure Air Temp Water Temp Dewpoint Dewpoint Depression Visibility Wind Speed Wind Dir Waves Ship Positions

Thorco Royal

Last reported at 2018-May-30 08:03 UTC. Time now 2018-Jun-22 16:40 UTC.
Position N 27°41' W 015°14'.
Warning: this ship's position is 23 days out of date.

Length 162 m; draft 8.8 m.

Type: Ship. MMSI: 477902400.

Date/timePositionNaut miles runAvg speedWind from/ knotsBaromVisibWave heightAir tempDewpointWater temp
2018-May-30 08:03N 27°41' W 015°14'114.2
2018-May-30 08:00N 27°41' W 015°14'713.8
2018-May-30 07:30N 27°48' W 015°11'713.5
2018-May-30 07:00N 27°54' W 015°07'816.3
2018-May-30 06:30N 28°01' W 015°04'816.6
2018-May-30 06:00N 28°09' W 015°01'714.9
2018-May-30 05:30N 28°16' W 014°58'713.5
2018-May-30 05:00N 28°22' W 014°54'713.4
2018-May-30 04:29N 28°27' W 014°49'613.5
2018-May-30 04:00N 28°32' W 014°44'713.4
2018-May-30 03:29N 28°38' W 014°39'63612.9
2018-May-28 02:14N 35°58' W 005°36'311.9
2018-May-28 02:00N 35°58' W 005°33'611.2
2018-May-28 01:30N 36°00' W 005°26'510.5
2018-May-28 01:00N 36°05' W 005°23'3 0.3
2018-May-27 16:06N 36°08' W 005°22'0 0.5
2018-May-27 15:58N 36°08' W 005°22'2 4.8
2018-May-27 15:30N 36°06' W 005°22'3 5.4
2018-May-27 15:00N 36°06' W 005°19'3 6.7
2018-May-27 14:30N 36°06' W 005°14'611.0
2018-May-27 14:00N 36°07' W 005°08'25812.0
2018-May-26 16:37N 37°29' W 000°03'213.1
2018-May-26 16:26N 37°30' E 000°00'48313.2
2018-May-25 03:49N 42°36' E 008°09'2613.7
2018-May-25 01:54N 42°50' E 008°40'613.7
2018-May-25 01:29N 42°53' E 008°46'813.7
2018-May-25 00:54N 42°57' E 008°56'614.0
2018-May-25 00:30N 42°60' E 009°02'714.1
2018-May-25 00:01N 43°04' E 009°10'714.1
2018-May-24 23:30N 43°07' E 009°19'714.1
2018-May-24 23:00N 43°09' E 009°28'713.9
2018-May-24 22:30N 43°12' E 009°37'814.0
2018-May-24 21:57N 43°15' E 009°47'614.0
2018-May-24 21:31N 43°18' E 009°54'713.6
2018-May-24 21:01N 43°22' E 010°01'612.3
2018-May-24 20:30N 43°28' E 010°05'5 9.3
2018-May-24 20:00N 43°30' E 010°10'4 8.1
2018-May-24 19:30N 43°32' E 010°15'3 6.5
2018-May-24 19:00N 43°34' E 010°18'0 0.3
2018-May-24 18:30N 43°34' E 010°18'0 0.0
2018-May-24 17:57N 43°34' E 010°18'0 0.0
2018-May-24 17:30N 43°34' E 010°18'0 0.0
2018-May-24 16:57N 43°34' E 010°18'0 0.0
2018-May-24 16:30N 43°34' E 010°18'0 0.0
2018-May-24 16:00N 43°34' E 010°18'0 0.0
2018-May-24 15:21N 43°34' E 010°18'0 0.0
2018-May-24 15:00N 43°34' E 010°18'0 0.0
2018-May-24 14:30N 43°34' E 010°18'0 0.0
2018-May-24 14:00N 43°34' E 010°18'0 0.0
2018-May-24 13:21N 43°34' E 010°18'0 0.0
2018-May-24 09:00N 43°34' E 010°18'0 0.0
2018-May-24 08:30N 43°34' E 010°18'0 0.0
2018-May-24 07:36N 43°34' E 010°18'0 0.0
2018-May-24 07:09N 43°34' E 010°18'0 0.0
2018-May-24 07:00N 43°34' E 010°18'0 0.0
2018-May-24 06:30N 43°34' E 010°18'0 0.0
2018-May-24 05:51N 43°34' E 010°18'0 0.0
2018-May-24 05:27N 43°34' E 010°18'0 0.0
2018-May-24 05:00N 43°34' E 010°18'0 0.0
2018-May-24 04:24N 43°34' E 010°18'0 0.0
2018-May-24 04:00N 43°34' E 010°18'0 0.0
2018-May-24 03:30N 43°34' E 010°18'0 0.0
2018-May-24 03:00N 43°34' E 010°18'0 0.0
2018-May-24 02:30N 43°34' E 010°18'0 0.0
2018-May-24 02:00N 43°34' E 010°18'0 0.0
2018-May-24 01:30N 43°34' E 010°18'0 0.0
2018-May-24 01:00N 43°34' E 010°18'0 0.0
2018-May-24 00:30N 43°34' E 010°18'0 0.0
2018-May-23 23:57N 43°34' E 010°18'0 0.0
2018-May-23 23:30N 43°34' E 010°18'0 0.0
2018-May-23 23:00N 43°34' E 010°18'0 0.0
2018-May-23 22:30N 43°34' E 010°18'0 0.0
2018-May-23 22:00N 43°34' E 010°18'0 0.0
2018-May-23 21:30N 43°34' E 010°18'0 0.0
2018-May-23 20:57N 43°34' E 010°18'0 0.0
2018-May-23 20:30N 43°34' E 010°18'0 0.0
2018-May-23 20:00N 43°34' E 010°18'0 0.0
2018-May-23 19:30N 43°34' E 010°18'0 0.0
2018-May-23 19:00N 43°34' E 010°18'0 0.0
2018-May-23 18:30N 43°34' E 010°18'0 0.0
2018-May-23 18:00N 43°34' E 010°18'0 0.0
2018-May-23 17:30N 43°34' E 010°18'0 0.0
2018-May-23 17:00N 43°34' E 010°18'0 0.0
2018-May-23 16:30N 43°34' E 010°18'0 0.0
2018-May-23 16:00N 43°34' E 010°18'0 0.0
2018-May-23 15:30N 43°34' E 010°18'0 0.0
2018-May-23 15:00N 43°34' E 010°18'0 0.0
2018-May-23 14:18N 43°34' E 010°18'0 0.0
2018-May-23 14:00N 43°34' E 010°18'0 0.0
2018-May-23 13:30N 43°34' E 010°18'0 0.0
2018-May-23 13:00N 43°34' E 010°18'0 0.0
2018-May-23 12:30N 43°34' E 010°18'0 0.0
2018-May-23 11:57N 43°34' E 010°18'0 0.0
2018-May-23 11:27N 43°34' E 010°18'0 0.0
2018-May-23 11:00N 43°34' E 010°18'0 0.0
2018-May-23 10:30N 43°34' E 010°18'0 0.0
2018-May-23 10:00N 43°34' E 010°18'0 0.0
2018-May-23 09:27N 43°34' E 010°18'0 0.0
2018-May-23 09:00N 43°34' E 010°18'0 0.0
2018-May-23 08:30N 43°34' E 010°18'0 0.0
2018-May-23 08:00N 43°34' E 010°18'0 0.0
2018-May-23 07:30N 43°34' E 010°18'0 0.0
2018-May-23 06:57N 43°34' E 010°18'0 0.0
2018-May-23 06:30N 43°34' E 010°18'0 0.0
2018-May-23 06:00N 43°34' E 010°18'0 0.0
2018-May-23 05:30N 43°34' E 010°18'0 0.0
2018-May-23 05:00N 43°34' E 010°18'0 0.0
2018-May-23 04:30N 43°34' E 010°18'0 0.0
2018-May-23 04:00N 43°34' E 010°18'0 0.0
2018-May-23 03:27N 43°34' E 010°18'0 0.0
2018-May-23 03:00N 43°34' E 010°18'0 0.0
2018-May-23 02:30N 43°34' E 010°18'0 0.0
2018-May-23 02:00N 43°34' E 010°18'0 0.0
2018-May-23 01:30N 43°34' E 010°18'0 0.0
2018-May-23 01:00N 43°34' E 010°18'0 0.0
2018-May-23 00:30N 43°34' E 010°18'0 0.0
2018-May-23 00:00N 43°34' E 010°18'0 0.0
2018-May-22 23:30N 43°34' E 010°18'0 0.0
2018-May-22 23:00N 43°34' E 010°18'0 0.0
2018-May-22 22:30N 43°34' E 010°18'0 0.0
2018-May-22 22:00N 43°34' E 010°18'0 0.0
2018-May-22 21:30N 43°34' E 010°18'0 0.0
2018-May-22 21:00N 43°34' E 010°18'0 0.0
2018-May-22 20:27N 43°34' E 010°18'0 0.0
2018-May-22 20:00N 43°34' E 010°18'0 0.0
2018-May-22 19:27N 43°34' E 010°18'0 0.0
2018-May-22 18:57N 43°34' E 010°18'0 0.0
2018-May-22 18:30N 43°34' E 010°18'0 0.0
2018-May-22 18:00N 43°34' E 010°18'0 0.0
2018-May-22 17:30N 43°34' E 010°18'0 0.0
2018-May-22 17:00N 43°34' E 010°18'0 0.0
2018-May-22 16:30N 43°34' E 010°18'0 0.0
2018-May-22 15:57N 43°34' E 010°18'0 0.0
2018-May-22 15:30N 43°34' E 010°18'0 0.0
2018-May-22 15:00N 43°34' E 010°18'0 0.0
2018-May-22 14:28N 43°34' E 010°18'0 0.0
2018-May-22 13:58N 43°34' E 010°18'0 0.0
2018-May-22 13:28N 43°34' E 010°18'0 0.0
2018-May-22 12:58N 43°34' E 010°18'0 0.0
2018-May-22 12:28N 43°34' E 010°18'0 0.0
2018-May-22 11:58N 43°34' E 010°18'0 0.0
2018-May-22 11:28N 43°34' E 010°18'0 0.0
2018-May-22 10:55N 43°34' E 010°18'0 0.0
2018-May-22 10:28N 43°34' E 010°18'0 0.0
2018-May-22 09:46N 43°34' E 010°18'0 0.0
2018-May-22 09:28N 43°34' E 010°18'0 0.0
2018-May-22 08:58N 43°34' E 010°18'0 0.0
2018-May-22 08:27N 43°34' E 010°18'0 0.0
2018-May-22 07:54N 43°34' E 010°18'0 0.0
2018-May-22 07:30N 43°34' E 010°18'0 0.0
2018-May-22 07:00N 43°34' E 010°18'0 0.0
2018-May-22 06:30N 43°34' E 010°18'0 0.0
2018-May-22 06:00N 43°34' E 010°18'0 0.0
2018-May-22 05:30N 43°34' E 010°18'0 0.0
2018-May-22 04:57N 43°34' E 010°18'0 0.0
2018-May-22 04:24N 43°34' E 010°18'0 0.0
2018-May-22 04:00N 43°34' E 010°18'0 0.0
2018-May-22 03:30N 43°34' E 010°18'0 0.0
2018-May-22 03:00N 43°34' E 010°18'0 0.0
2018-May-22 02:27N 43°34' E 010°18'0 0.0
2018-May-22 01:57N 43°34' E 010°18'0 0.0
2018-May-22 01:27N 43°34' E 010°18'0 0.0
2018-May-22 00:57N 43°34' E 010°18'0 0.0
2018-May-22 00:30N 43°34' E 010°18'0 0.0
2018-May-22 00:00N 43°34' E 010°18'0 0.0
2018-May-21 23:30N 43°34' E 010°18'0 0.0
2018-May-21 22:57N 43°34' E 010°18'0 0.0
2018-May-21 22:30N 43°34' E 010°18'0 0.1
2018-May-21 22:01N 43°34' E 010°18'2 4.7
2018-May-21 21:31N 43°32' E 010°17'1 2.8
2018-May-21 21:01N 43°31' E 010°16'2 3.5
2018-May-21 20:29N 43°29' E 010°17'0 0.0
2018-May-21 19:59N 43°29' E 010°17'0 0.1
2018-May-21 19:29N 43°29' E 010°17'0 0.1
2018-May-21 18:59N 43°29' E 010°17'0 0.0
2018-May-21 18:29N 43°29' E 010°17'0 0.1
2018-May-21 17:59N 43°29' E 010°17'0 0.0
2018-May-21 17:29N 43°29' E 010°17'0 0.0
2018-May-21 16:59N 43°29' E 010°17'0 0.0
2018-May-21 16:29N 43°29' E 010°17'0 0.1
2018-May-21 15:56N 43°29' E 010°17'0 0.2
2018-May-21 15:29N 43°29' E 010°17'0 0.1
2018-May-21 14:59N 43°29' E 010°17'0 0.0
2018-May-21 14:23N 43°29' E 010°17'0 0.1
2018-May-21 13:59N 43°29' E 010°17'0 0.0
2018-May-21 13:29N 43°29' E 010°17'0 0.2
2018-May-21 12:56N 43°29' E 010°17'0 0.1
2018-May-21 12:29N 43°29' E 010°17'0 0.0
2018-May-21 11:59N 43°29' E 010°17'0 0.1
2018-May-21 11:29N 43°29' E 010°17'0 0.0
2018-May-21 10:59N 43°29' E 010°17'0 0.1
2018-May-21 10:29N 43°29' E 010°17'0 0.3
2018-May-21 09:59N 43°29' E 010°17'0 0.0
2018-May-21 09:29N 43°29' E 010°17'0 0.0
2018-May-21 08:59N 43°29' E 010°17'0 0.1
2018-May-21 08:29N 43°29' E 010°17'0 0.0
2018-May-21 07:56N 43°29' E 010°17'0 0.0
2018-May-21 07:29N 43°29' E 010°17'0 0.0
2018-May-21 06:59N 43°29' E 010°17'0 0.0
2018-May-21 06:26N 43°29' E 010°17'0 0.0
2018-May-21 05:59N 43°29' E 010°17'0 0.0
2018-May-21 05:29N 43°29' E 010°17'0 0.0
2018-May-21 04:59N 43°29' E 010°17'0 0.0
2018-May-21 04:26N 43°29' E 010°17'0 0.0
2018-May-21 03:59N 43°29' E 010°17'0 0.0
2018-May-21 03:29N 43°29' E 010°17'0 0.0
2018-May-21 02:59N 43°29' E 010°17'0 0.0
2018-May-21 02:26N 43°29' E 010°17'0 0.0
2018-May-21 01:53N 43°29' E 010°17'0 0.0
2018-May-21 01:29N 43°29' E 010°17'0 0.0
2018-May-21 00:59N 43°29' E 010°17'0 0.0
2018-May-21 00:29N 43°29' E 010°17'0 0.0
2018-May-20 23:59N 43°29' E 010°17'0 0.0
2018-May-20 23:26N 43°29' E 010°17'0 0.0
2018-May-20 22:56N 43°29' E 010°17'0 0.1
2018-May-20 22:29N 43°29' E 010°17'0 0.0
2018-May-20 21:56N 43°29' E 010°17'0 0.1
2018-May-20 21:29N 43°29' E 010°17'0 0.0
2018-May-20 20:59N 43°29' E 010°17'0 0.0
2018-May-20 20:29N 43°29' E 010°17'0 0.0
2018-May-20 19:59N 43°29' E 010°17'0 0.0
2018-May-20 19:20N 43°29' E 010°17'0 0.2
2018-May-20 18:59N 43°29' E 010°17'0 0.0
2018-May-20 18:29N 43°29' E 010°17'0 0.1
2018-May-20 17:59N 43°29' E 010°17'0 0.1
2018-May-20 17:26N 43°29' E 010°17'0 0.1
2018-May-20 16:59N 43°29' E 010°17'0 0.0
2018-May-20 16:29N 43°29' E 010°17'0 0.0
2018-May-20 15:59N 43°29' E 010°17'0 0.0
2018-May-20 15:29N 43°29' E 010°17'0 0.1
2018-May-20 14:59N 43°29' E 010°17'0 0.0
2018-May-20 14:23N 43°29' E 010°17'0 0.0
2018-May-20 13:53N 43°29' E 010°17'0 0.0
2018-May-20 13:26N 43°29' E 010°17'0 0.0
2018-May-20 12:59N 43°29' E 010°17'0 0.0
2018-May-20 12:29N 43°29' E 010°17'0 0.1
2018-May-20 11:59N 43°29' E 010°17'0 0.3
2018-May-20 11:26N 43°29' E 010°17'0 0.0
2018-May-20 10:53N 43°29' E 010°17'0 0.0
2018-May-20 10:29N 43°29' E 010°17'0 0.0
2018-May-20 09:59N 43°29' E 010°17'0 0.0
2018-May-20 09:29N 43°29' E 010°17'0 0.0
2018-May-20 08:59N 43°29' E 010°17'0 0.0
2018-May-20 08:26N 43°29' E 010°17'  

Dump ship's entire track history